sensor_id;sensor_type;location;lat;lon;timestamp;pressure;altitude;pressure_sealevel;temperature;humidity
67840;BME280;54636;51.684;5.142;2023-02-20T00:02:02;102643.75;;;5.40;100.00
67840;BME280;54636;51.684;5.142;2023-02-20T00:04:28;102636.88;;;5.35;100.00
67840;BME280;54636;51.684;5.142;2023-02-20T00:06:53;102646.09;;;5.38;100.00
67840;BME280;54636;51.684;5.142;2023-02-20T00:09:18;102635.41;;;5.27;100.00
67840;BME280;54636;51.684;5.142;2023-02-20T00:11:44;102637.31;;;5.26;100.00
67840;BME280;54636;51.684;5.142;2023-02-20T00:14:11;102642.72;;;5.26;100.00
67840;BME280;54636;51.684;5.142;2023-02-20T00:16:36;102632.38;;;5.21;100.00
67840;BME280;54636;51.684;5.142;2023-02-20T00:19:02;102620.50;;;5.19;100.00
67840;BME280;54636;51.684;5.142;2023-02-20T00:21:27;102624.72;;;5.20;100.00
67840;BME280;54636;51.684;5.142;2023-02-20T00:23:53;102605.19;;;5.09;100.00
67840;BME280;54636;51.684;5.142;2023-02-20T00:26:18;102603.25;;;5.09;100.00
67840;BME280;54636;51.684;5.142;2023-02-20T00:28:43;102599.06;;;5.05;100.00
67840;BME280;54636;51.684;5.142;2023-02-20T00:31:13;102604.44;;;5.05;100.00
67840;BME280;54636;51.684;5.142;2023-02-20T00:33:39;102599.78;;;5.09;100.00
67840;BME280;54636;51.684;5.142;2023-02-20T00:36:05;102575.31;;;4.92;100.00
67840;BME280;54636;51.684;5.142;2023-02-20T00:38:30;102582.19;;;4.97;100.00
67840;BME280;54636;51.684;5.142;2023-02-20T00:40:56;102574.56;;;4.88;100.00
67840;BME280;54636;51.684;5.142;2023-02-20T00:43:21;102566.91;;;4.87;100.00
67840;BME280;54636;51.684;5.142;2023-02-20T00:45:46;102581.53;;;4.82;100.00
67840;BME280;54636;51.684;5.142;2023-02-20T00:48:15;102565.78;;;4.81;100.00
67840;BME280;54636;51.684;5.142;2023-02-20T00:50:40;102565.81;;;4.77;100.00
67840;BME280;54636;51.684;5.142;2023-02-20T00:53:06;102552.81;;;4.69;100.00
67840;BME280;54636;51.684;5.142;2023-02-20T00:55:31;102538.28;;;4.55;100.00
67840;BME280;54636;51.684;5.142;2023-02-20T00:57:57;102528.41;;;4.45;100.00
67840;BME280;54636;51.684;5.142;2023-02-20T01:00:28;102572.88;;;4.60;100.00
67840;BME280;54636;51.684;5.142;2023-02-20T01:02:54;102547.97;;;4.49;100.00
67840;BME280;54636;51.684;5.142;2023-02-20T01:05:20;102561.81;;;4.51;100.00
67840;BME280;54636;51.684;5.142;2023-02-20T01:07:45;102560.69;;;4.45;100.00
67840;BME280;54636;51.684;5.142;2023-02-20T01:10:12;102563.78;;;4.44;100.00
67840;BME280;54636;51.684;5.142;2023-02-20T01:12:37;102562.25;;;4.43;100.00
67840;BME280;54636;51.684;5.142;2023-02-20T01:15:05;102566.09;;;4.42;100.00
67840;BME280;54636;51.684;5.142;2023-02-20T01:17:31;102574.16;;;4.42;100.00
67840;BME280;54636;51.684;5.142;2023-02-20T01:19:56;102568.00;;;4.45;100.00
67840;BME280;54636;51.684;5.142;2023-02-20T01:22:22;102554.66;;;4.27;100.00
67840;BME280;54636;51.684;5.142;2023-02-20T01:24:47;102563.41;;;4.42;100.00
67840;BME280;54636;51.684;5.142;2023-02-20T01:27:13;102548.88;;;4.28;100.00
67840;BME280;54636;51.684;5.142;2023-02-20T01:29:38;102565.38;;;4.34;100.00
67840;BME280;54636;51.684;5.142;2023-02-20T01:32:04;102564.22;;;4.35;100.00
67840;BME280;54636;51.684;5.142;2023-02-20T01:34:29;102558.09;;;4.31;100.00
67840;BME280;54636;51.684;5.142;2023-02-20T01:36:55;102559.63;;;4.32;100.00
67840;BME280;54636;51.684;5.142;2023-02-20T01:39:23;102556.16;;;4.32;100.00
67840;BME280;54636;51.684;5.142;2023-02-20T01:41:51;102529.72;;;4.19;100.00
67840;BME280;54636;51.684;5.142;2023-02-20T01:44:24;102522.44;;;4.20;100.00
67840;BME280;54636;51.684;5.142;2023-02-20T01:46:52;102540.41;;;4.30;100.00
67840;BME280;54636;51.684;5.142;2023-02-20T01:49:37;102513.09;;;4.35;100.00
67840;BME280;54636;51.684;5.142;2023-02-20T01:52:09;102504.66;;;4.33;100.00
67840;BME280;54636;51.684;5.142;2023-02-20T01:54:39;102505.78;;;4.36;100.00
67840;BME280;54636;51.684;5.142;2023-02-20T01:57:08;102492.78;;;4.30;100.00
67840;BME280;54636;51.684;5.142;2023-02-20T01:59:37;102479.38;;;4.23;100.00
67840;BME280;54636;51.684;5.142;2023-02-20T02:02:05;102468.22;;;4.25;100.00
67840;BME280;54636;51.684;5.142;2023-02-20T02:04:32;102465.53;;;4.25;100.00
67840;BME280;54636;51.684;5.142;2023-02-20T02:06:58;102449.84;;;4.13;100.00
67840;BME280;54636;51.684;5.142;2023-02-20T02:09:37;102442.59;;;4.10;100.00
67840;BME280;54636;51.684;5.142;2023-02-20T02:12:07;102452.84;;;4.25;100.00
67840;BME280;54636;51.684;5.142;2023-02-20T02:14:33;102455.56;;;4.22;100.00
67840;BME280;54636;51.684;5.142;2023-02-20T02:17:14;102459.78;;;4.23;100.00
67840;BME280;54636;51.684;5.142;2023-02-20T02:22:41;102463.59;;;4.25;100.00
67840;BME280;54636;51.684;5.142;2023-02-20T02:26:13;102445.13;;;4.27;100.00
67840;BME280;54636;51.684;5.142;2023-02-20T02:28:22;102447.06;;;4.27;100.00
67840;BME280;54636;51.684;5.142;2023-02-20T02:31:16;102455.41;;;4.40;100.00
67840;BME280;54636;51.684;5.142;2023-02-20T02:39:45;102446.38;;;4.60;100.00
67840;BME280;54636;51.684;5.142;2023-02-20T02:47:54;102427.72;;;4.80;100.00
67840;BME280;54636;51.684;5.142;2023-02-20T02:50:33;102432.31;;;4.83;100.00
67840;BME280;54636;51.684;5.142;2023-02-20T02:53:02;102431.91;;;4.85;100.00
67840;BME280;54636;51.684;5.142;2023-02-20T02:55:30;102434.56;;;4.88;100.00
67840;BME280;54636;51.684;5.142;2023-02-20T02:57:58;102419.53;;;4.91;100.00
67840;BME280;54636;51.684;5.142;2023-02-20T03:03:11;102419.91;;;4.93;100.00
67840;BME280;54636;51.684;5.142;2023-02-20T03:11:02;102412.16;;;4.99;100.00
67840;BME280;54636;51.684;5.142;2023-02-20T03:13:29;102411.72;;;5.04;100.00
67840;BME280;54636;51.684;5.142;2023-02-20T03:16:19;102409.41;;;5.02;100.00
67840;BME280;54636;51.684;5.142;2023-02-20T03:18:47;102418.19;;;5.10;100.00
67840;BME280;54636;51.684;5.142;2023-02-20T03:21:17;102410.81;;;5.14;100.00
67840;BME280;54636;51.684;5.142;2023-02-20T03:23:51;102409.28;;;5.13;100.00
67840;BME280;54636;51.684;5.142;2023-02-20T03:26:21;102413.56;;;5.10;100.00
67840;BME280;54636;51.684;5.142;2023-02-20T03:28:55;102416.16;;;5.17;100.00
67840;BME280;54636;51.684;5.142;2023-02-20T03:31:27;102407.22;;;5.24;100.00
67840;BME280;54636;51.684;5.142;2023-02-20T03:34:05;102402.84;;;5.34;100.00
67840;BME280;54636;51.684;5.142;2023-02-20T03:37:04;102408.91;;;5.41;100.00
67840;BME280;54636;51.684;5.142;2023-02-20T03:39:52;102383.53;;;5.39;100.00
67840;BME280;54636;51.684;5.142;2023-02-20T03:42:40;102400.72;;;5.48;100.00
67840;BME280;54636;51.684;5.142;2023-02-20T03:45:27;102380.44;;;5.40;100.00
67840;BME280;54636;51.684;5.142;2023-02-20T03:47:58;102402.13;;;5.60;100.00
67840;BME280;54636;51.684;5.142;2023-02-20T03:50:24;102391.03;;;5.54;100.00
67840;BME280;54636;51.684;5.142;2023-02-20T03:52:50;102399.38;;;5.63;100.00
67840;BME280;54636;51.684;5.142;2023-02-20T03:55:15;102366.06;;;5.50;100.00
67840;BME280;54636;51.684;5.142;2023-02-20T03:57:45;102412.53;;;5.85;100.00
67840;BME280;54636;51.684;5.142;2023-02-20T04:00:25;102399.56;;;5.76;100.00
67840;BME280;54636;51.684;5.142;2023-02-20T04:02:53;102392.31;;;5.73;100.00
67840;BME280;54636;51.684;5.142;2023-02-20T04:05:26;102392.19;;;5.80;100.00
67840;BME280;54636;51.684;5.142;2023-02-20T04:07:57;102408.53;;;5.97;100.00
67840;BME280;54636;51.684;5.142;2023-02-20T04:10:29;102414.22;;;6.02;100.00
67840;BME280;54636;51.684;5.142;2023-02-20T04:12:59;102408.00;;;6.05;100.00
67840;BME280;54636;51.684;5.142;2023-02-20T04:15:26;102404.19;;;6.03;100.00
67840;BME280;54636;51.684;5.142;2023-02-20T04:18:00;102398.19;;;5.91;100.00
67840;BME280;54636;51.684;5.142;2023-02-20T04:20:27;102401.13;;;6.01;100.00
67840;BME280;54636;51.684;5.142;2023-02-20T04:22:57;102409.78;;;6.15;100.00
67840;BME280;54636;51.684;5.142;2023-02-20T04:25:46;102417.81;;;6.19;100.00
67840;BME280;54636;51.684;5.142;2023-02-20T04:28:13;102422.91;;;6.13;100.00
67840;BME280;54636;51.684;5.142;2023-02-20T04:30:39;102407.78;;;6.19;100.00
67840;BME280;54636;51.684;5.142;2023-02-20T04:33:05;102406.72;;;6.13;100.00
67840;BME280;54636;51.684;5.142;2023-02-20T04:35:31;102410.88;;;6.18;100.00
67840;BME280;54636;51.684;5.142;2023-02-20T04:37:56;102359.56;;;5.98;100.00
67840;BME280;54636;51.684;5.142;2023-02-20T04:40:23;102417.50;;;6.37;100.00
67840;BME280;54636;51.684;5.142;2023-02-20T04:42:48;102409.59;;;6.26;100.00
67840;BME280;54636;51.684;5.142;2023-02-20T04:45:14;102420.22;;;6.37;100.00
67840;BME280;54636;51.684;5.142;2023-02-20T04:47:42;102398.81;;;6.26;100.00
67840;BME280;54636;51.684;5.142;2023-02-20T04:50:20;102419.34;;;6.43;100.00
67840;BME280;54636;51.684;5.142;2023-02-20T04:52:46;102399.50;;;6.30;100.00
67840;BME280;54636;51.684;5.142;2023-02-20T04:55:11;102414.75;;;6.40;100.00
67840;BME280;54636;51.684;5.142;2023-02-20T04:57:37;102381.63;;;6.16;100.00
67840;BME280;54636;51.684;5.142;2023-02-20T05:00:03;102422.72;;;6.47;100.00
67840;BME280;54636;51.684;5.142;2023-02-20T05:02:29;102408.19;;;6.41;100.00
67840;BME280;54636;51.684;5.142;2023-02-20T05:04:54;102405.00;;;6.46;100.00
67840;BME280;54636;51.684;5.142;2023-02-20T05:07:19;102429.44;;;6.59;100.00
67840;BME280;54636;51.684;5.142;2023-02-20T05:09:45;102427.50;;;6.59;100.00
67840;BME280;54636;51.684;5.142;2023-02-20T05:12:10;102425.97;;;6.58;100.00
67840;BME280;54636;51.684;5.142;2023-02-20T05:14:36;102417.19;;;6.54;100.00
67840;BME280;54636;51.684;5.142;2023-02-20T05:17:01;102419.75;;;6.61;100.00
67840;BME280;54636;51.684;5.142;2023-02-20T05:19:26;102417.00;;;6.65;100.00
67840;BME280;54636;51.684;5.142;2023-02-20T05:21:52;102414.28;;;6.65;100.00
67840;BME280;54636;51.684;5.142;2023-02-20T05:24:36;102418.44;;;6.70;100.00
67840;BME280;54636;51.684;5.142;2023-02-20T05:27:01;102417.41;;;6.64;100.00
67840;BME280;54636;51.684;5.142;2023-02-20T05:29:27;102418.50;;;6.66;100.00
67840;BME280;54636;51.684;5.142;2023-02-20T05:31:52;102414.94;;;6.73;100.00
67840;BME280;54636;51.684;5.142;2023-02-20T05:34:18;102403.97;;;6.60;100.00
67840;BME280;54636;51.684;5.142;2023-02-20T05:36:45;102407.31;;;6.68;100.00
67840;BME280;54636;51.684;5.142;2023-02-20T05:39:11;102416.88;;;6.72;100.00
67840;BME280;54636;51.684;5.142;2023-02-20T05:41:36;102401.97;;;6.64;100.00
67840;BME280;54636;51.684;5.142;2023-02-20T05:44:01;102385.06;;;6.60;100.00
67840;BME280;54636;51.684;5.142;2023-02-20T05:46:27;102407.59;;;6.73;100.00
67840;BME280;54636;51.684;5.142;2023-02-20T05:48:53;102417.84;;;6.82;100.00
67840;BME280;54636;51.684;5.142;2023-02-20T05:51:25;102410.91;;;6.81;100.00
67840;BME280;54636;51.684;5.142;2023-02-20T05:53:51;102414.78;;;6.80;100.00
67840;BME280;54636;51.684;5.142;2023-02-20T05:56:17;102401.41;;;6.73;100.00
67840;BME280;54636;51.684;5.142;2023-02-20T05:58:44;102405.78;;;6.86;100.00
67840;BME280;54636;51.684;5.142;2023-02-20T06:01:27;102412.66;;;6.91;100.00
67840;BME280;54636;51.684;5.142;2023-02-20T06:03:52;102410.91;;;6.81;100.00
67840;BME280;54636;51.684;5.142;2023-02-20T06:06:19;102413.41;;;6.91;100.00
67840;BME280;54636;51.684;5.142;2023-02-20T06:08:45;102395.59;;;6.74;100.00
67840;BME280;54636;51.684;5.142;2023-02-20T06:11:11;102404.13;;;6.73;100.00
67840;BME280;54636;51.684;5.142;2023-02-20T06:13:41;102386.13;;;6.66;100.00
67840;BME280;54636;51.684;5.142;2023-02-20T06:16:07;102404.41;;;6.78;100.00
67840;BME280;54636;51.684;5.142;2023-02-20T06:18:33;102410.50;;;6.82;100.00
67840;BME280;54636;51.684;5.142;2023-02-20T06:20:58;102402.88;;;6.77;100.00
67840;BME280;54636;51.684;5.142;2023-02-20T06:23:24;102400.94;;;6.78;100.00
67840;BME280;54636;51.684;5.142;2023-02-20T06:25:49;102422.69;;;6.90;100.00
67840;BME280;54636;51.684;5.142;2023-02-20T06:28:14;102396.03;;;6.73;100.00
67840;BME280;54636;51.684;5.142;2023-02-20T06:30:40;102426.84;;;6.95;100.00
67840;BME280;54636;51.684;5.142;2023-02-20T06:33:05;102427.28;;;6.93;100.00
67840;BME280;54636;51.684;5.142;2023-02-20T06:35:30;102424.44;;;7.01;100.00
67840;BME280;54636;51.684;5.142;2023-02-20T06:37:56;102422.63;;;6.94;100.00
67840;BME280;54636;51.684;5.142;2023-02-20T06:40:22;102405.03;;;7.06;100.00
67840;BME280;54636;51.684;5.142;2023-02-20T06:42:47;102426.03;;;6.98;100.00
67840;BME280;54636;51.684;5.142;2023-02-20T06:45:12;102415.50;;;7.04;100.00
67840;BME280;54636;51.684;5.142;2023-02-20T06:47:38;102409.13;;;6.94;100.00
67840;BME280;54636;51.684;5.142;2023-02-20T06:50:03;102388.56;;;6.80;100.00
67840;BME280;54636;51.684;5.142;2023-02-20T06:52:29;102380.88;;;6.79;100.00
67840;BME280;54636;51.684;5.142;2023-02-20T06:54:54;102401.28;;;7.00;100.00
67840;BME280;54636;51.684;5.142;2023-02-20T06:57:20;102408.63;;;6.99;100.00
67840;BME280;54636;51.684;5.142;2023-02-20T06:59:46;102404.28;;;7.05;100.00
67840;BME280;54636;51.684;5.142;2023-02-20T07:02:14;102364.03;;;6.71;100.00
67840;BME280;54636;51.684;5.142;2023-02-20T07:04:40;102409.34;;;7.03;100.00
67840;BME280;54636;51.684;5.142;2023-02-20T07:07:06;102410.50;;;7.02;100.00
67840;BME280;54636;51.684;5.142;2023-02-20T07:09:31;102406.69;;;7.00;100.00
67840;BME280;54636;51.684;5.142;2023-02-20T07:11:57;102361.25;;;6.75;100.00
67840;BME280;54636;51.684;5.142;2023-02-20T07:14:22;102408.34;;;7.13;100.00
67840;BME280;54636;51.684;5.142;2023-02-20T07:16:48;102411.81;;;7.14;100.00
67840;BME280;54636;51.684;5.142;2023-02-20T07:19:13;102402.09;;;7.16;100.00
67840;BME280;54636;51.684;5.142;2023-02-20T07:21:39;102416.72;;;7.19;100.00
67840;BME280;54636;51.684;5.142;2023-02-20T07:24:04;102422.88;;;7.19;100.00
67840;BME280;54636;51.684;5.142;2023-02-20T07:26:30;102416.63;;;7.22;100.00
67840;BME280;54636;51.684;5.142;2023-02-20T07:28:56;102418.84;;;7.27;100.00
67840;BME280;54636;51.684;5.142;2023-02-20T07:31:23;102397.63;;;7.10;100.00
67840;BME280;54636;51.684;5.142;2023-02-20T07:33:49;102425.78;;;7.28;100.00
67840;BME280;54636;51.684;5.142;2023-02-20T07:36:15;102426.47;;;7.33;100.00
67840;BME280;54636;51.684;5.142;2023-02-20T07:38:41;102426.13;;;7.31;100.00
67840;BME280;54636;51.684;5.142;2023-02-20T07:41:07;102430.78;;;7.30;100.00
67840;BME280;54636;51.684;5.142;2023-02-20T07:43:33;102431.38;;;7.38;100.00
67840;BME280;54636;51.684;5.142;2023-02-20T07:45:58;102430.97;;;7.39;100.00
67840;BME280;54636;51.684;5.142;2023-02-20T07:48:23;102426.06;;;7.34;100.00
67840;BME280;54636;51.684;5.142;2023-02-20T07:50:49;102417.19;;;7.34;100.00
67840;BME280;54636;51.684;5.142;2023-02-20T07:53:16;102405.59;;;7.33;100.00
67840;BME280;54636;51.684;5.142;2023-02-20T07:55:42;102382.41;;;7.16;100.00
67840;BME280;54636;51.684;5.142;2023-02-20T07:58:07;102417.63;;;7.48;100.00
67840;BME280;54636;51.684;5.142;2023-02-20T08:00:33;102413.06;;;7.45;100.00
67840;BME280;54636;51.684;5.142;2023-02-20T08:02:59;102418.91;;;7.44;100.00
67840;BME280;54636;51.684;5.142;2023-02-20T08:05:24;102423.41;;;7.50;100.00
67840;BME280;54636;51.684;5.142;2023-02-20T08:07:50;102420.97;;;7.56;100.00
67840;BME280;54636;51.684;5.142;2023-02-20T08:10:20;102397.03;;;7.54;100.00
67840;BME280;54636;51.684;5.142;2023-02-20T08:12:47;102399.81;;;7.51;100.00
67840;BME280;54636;51.684;5.142;2023-02-20T08:15:13;102427.31;;;7.66;100.00
67840;BME280;54636;51.684;5.142;2023-02-20T08:17:39;102406.53;;;7.63;100.00
67840;BME280;54636;51.684;5.142;2023-02-20T08:20:06;102407.63;;;7.65;100.00
67840;BME280;54636;51.684;5.142;2023-02-20T08:22:33;102397.31;;;7.60;100.00
67840;BME280;54636;51.684;5.142;2023-02-20T08:24:59;102414.41;;;7.73;100.00
67840;BME280;54636;51.684;5.142;2023-02-20T08:27:24;102408.56;;;7.75;100.00
67840;BME280;54636;51.684;5.142;2023-02-20T08:29:51;102422.06;;;7.91;100.00
67840;BME280;54636;51.684;5.142;2023-02-20T08:32:17;102409.66;;;7.77;100.00
67840;BME280;54636;51.684;5.142;2023-02-20T08:34:42;102408.16;;;7.76;100.00
67840;BME280;54636;51.684;5.142;2023-02-20T08:37:08;102418.88;;;7.96;100.00
67840;BME280;54636;51.684;5.142;2023-02-20T08:39:34;102409.41;;;8.04;100.00
67840;BME280;54636;51.684;5.142;2023-02-20T08:42:00;102400.94;;;8.02;100.00
67840;BME280;54636;51.684;5.142;2023-02-20T08:44:26;102416.50;;;7.98;100.00
67840;BME280;54636;51.684;5.142;2023-02-20T08:46:51;102410.75;;;8.12;100.00
67840;BME280;54636;51.684;5.142;2023-02-20T08:49:17;102390.19;;;8.15;100.00
67840;BME280;54636;51.684;5.142;2023-02-20T08:51:47;102399.34;;;8.05;100.00
67840;BME280;54636;51.684;5.142;2023-02-20T08:54:13;102420.47;;;8.42;100.00
67840;BME280;54636;51.684;5.142;2023-02-20T08:56:48;102420.56;;;8.22;100.00
67840;BME280;54636;51.684;5.142;2023-02-20T08:59:14;102420.72;;;8.32;100.00
67840;BME280;54636;51.684;5.142;2023-02-20T09:01:40;102418.84;;;8.29;100.00
67840;BME280;54636;51.684;5.142;2023-02-20T09:04:06;102419.19;;;8.47;100.00
67840;BME280;54636;51.684;5.142;2023-02-20T09:06:32;102410.84;;;8.41;100.00
67840;BME280;54636;51.684;5.142;2023-02-20T09:08:58;102394.66;;;8.21;100.00
67840;BME280;54636;51.684;5.142;2023-02-20T09:11:23;102406.50;;;8.44;100.00
67840;BME280;54636;51.684;5.142;2023-02-20T09:13:49;102410.34;;;8.59;100.00
67840;BME280;54636;51.684;5.142;2023-02-20T09:16:18;102422.59;;;8.64;100.00
67840;BME280;54636;51.684;5.142;2023-02-20T09:18:44;102420.00;;;8.60;100.00
67840;BME280;54636;51.684;5.142;2023-02-20T09:21:15;102381.13;;;8.21;100.00
67840;BME280;54636;51.684;5.142;2023-02-20T09:23:41;102425.06;;;8.58;100.00
67840;BME280;54636;51.684;5.142;2023-02-20T09:26:07;102428.63;;;8.55;100.00
67840;BME280;54636;51.684;5.142;2023-02-20T09:28:32;102423.75;;;8.50;100.00
67840;BME280;54636;51.684;5.142;2023-02-20T09:31:01;102421.59;;;8.57;100.00
67840;BME280;54636;51.684;5.142;2023-02-20T09:33:27;102408.50;;;8.56;100.00
67840;BME280;54636;51.684;5.142;2023-02-20T09:35:53;102403.59;;;8.51;100.00
67840;BME280;54636;51.684;5.142;2023-02-20T09:38:20;102379.63;;;8.37;100.00
67840;BME280;54636;51.684;5.142;2023-02-20T09:40:54;102403.50;;;8.54;100.00
67840;BME280;54636;51.684;5.142;2023-02-20T09:43:50;102393.09;;;8.53;100.00
67840;BME280;54636;51.684;5.142;2023-02-20T09:46:21;102388.00;;;8.55;100.00
67840;BME280;54636;51.684;5.142;2023-02-20T09:51:50;102394.03;;;8.46;100.00
67840;BME280;54636;51.684;5.142;2023-02-20T09:54:23;102383.25;;;8.30;100.00
67840;BME280;54636;51.684;5.142;2023-02-20T09:56:55;102396.47;;;8.57;100.00
67840;BME280;54636;51.684;5.142;2023-02-20T09:59:28;102391.47;;;8.55;100.00
67840;BME280;54636;51.684;5.142;2023-02-20T10:04:51;102415.44;;;8.57;100.00
67840;BME280;54636;51.684;5.142;2023-02-20T10:07:31;102423.94;;;8.72;100.00
67840;BME280;54636;51.684;5.142;2023-02-20T10:09:58;102416.19;;;8.57;100.00
67840;BME280;54636;51.684;5.142;2023-02-20T10:12:52;102427.00;;;8.74;100.00
67840;BME280;54636;51.684;5.142;2023-02-20T10:20:49;102436.16;;;8.64;100.00
67840;BME280;54636;51.684;5.142;2023-02-20T10:25:52;102425.25;;;8.51;100.00
67840;BME280;54636;51.684;5.142;2023-02-20T10:28:19;102429.22;;;8.63;100.00
67840;BME280;54636;51.684;5.142;2023-02-20T10:38:51;102404.22;;;8.42;100.00
67840;BME280;54636;51.684;5.142;2023-02-20T10:44:32;102428.13;;;8.60;100.00
67840;BME280;54636;51.684;5.142;2023-02-20T10:47:15;102424.31;;;8.57;100.00
67840;BME280;54636;51.684;5.142;2023-02-20T10:50:03;102426.25;;;8.57;100.00
67840;BME280;54636;51.684;5.142;2023-02-20T10:52:40;102430.59;;;8.54;100.00
67840;BME280;54636;51.684;5.142;2023-02-20T10:55:57;102437.84;;;8.57;100.00
67840;BME280;54636;51.684;5.142;2023-02-20T11:01:23;102422.44;;;8.42;100.00
67840;BME280;54636;51.684;5.142;2023-02-20T11:06:39;102409.00;;;8.51;100.00
67840;BME280;54636;51.684;5.142;2023-02-20T11:09:04;102410.00;;;8.57;100.00
67840;BME280;54636;51.684;5.142;2023-02-20T11:11:35;102420.75;;;8.61;100.00
67840;BME280;54636;51.684;5.142;2023-02-20T11:16:59;102396.38;;;8.61;100.00
67840;BME280;54636;51.684;5.142;2023-02-20T11:19:41;102406.59;;;8.69;100.00
67840;BME280;54636;51.684;5.142;2023-02-20T11:22:07;102412.41;;;8.84;100.00
67840;BME280;54636;51.684;5.142;2023-02-20T11:24:37;102403.56;;;8.67;100.00
67840;BME280;54636;51.684;5.142;2023-02-20T11:27:07;102428.22;;;8.85;100.00
67840;BME280;54636;51.684;5.142;2023-02-20T11:29:37;102402.97;;;8.88;100.00
67840;BME280;54636;51.684;5.142;2023-02-20T11:32:37;102401.16;;;9.11;100.00
67840;BME280;54636;51.684;5.142;2023-02-20T11:37:45;102376.03;;;9.23;100.00
67840;BME280;54636;51.684;5.142;2023-02-20T11:40:37;102379.31;;;9.43;100.00
67840;BME280;54636;51.684;5.142;2023-02-20T11:45:38;102360.97;;;9.47;100.00
67840;BME280;54636;51.684;5.142;2023-02-20T11:48:09;102383.97;;;9.68;100.00
67840;BME280;54636;51.684;5.142;2023-02-20T11:50:49;102387.00;;;9.70;100.00
67840;BME280;54636;51.684;5.142;2023-02-20T11:55:43;102371.03;;;9.72;100.00
67840;BME280;54636;51.684;5.142;2023-02-20T11:58:28;102373.06;;;9.81;100.00
67840;BME280;54636;51.684;5.142;2023-02-20T12:00:54;102368.84;;;9.80;100.00
67840;BME280;54636;51.684;5.142;2023-02-20T12:05:47;102374.25;;;9.93;100.00
67840;BME280;54636;51.684;5.142;2023-02-20T12:11:23;102347.66;;;9.87;100.00
67840;BME280;54636;51.684;5.142;2023-02-20T12:13:51;102326.25;;;9.89;100.00
67840;BME280;54636;51.684;5.142;2023-02-20T12:18:57;102341.09;;;10.10;100.00
67840;BME280;54636;51.684;5.142;2023-02-20T12:24:01;102339.41;;;9.91;100.00
67840;BME280;54636;51.684;5.142;2023-02-20T12:26:48;102338.75;;;9.87;100.00
67840;BME280;54636;51.684;5.142;2023-02-20T12:29:20;102352.84;;;9.95;100.00
67840;BME280;54636;51.684;5.142;2023-02-20T12:35:03;102318.31;;;9.95;100.00
67840;BME280;54636;51.684;5.142;2023-02-20T12:37:59;102321.03;;;9.95;100.00
67840;BME280;54636;51.684;5.142;2023-02-20T12:46:20;102290.34;;;9.85;100.00
67840;BME280;54636;51.684;5.142;2023-02-20T12:49:00;102299.31;;;9.95;100.00
67840;BME280;54636;51.684;5.142;2023-02-20T13:01:51;102328.38;;;9.73;100.00
67840;BME280;54636;51.684;5.142;2023-02-20T13:04:41;102296.19;;;9.62;100.00
67840;BME280;54636;51.684;5.142;2023-02-20T13:07:16;102297.38;;;9.61;100.00
67840;BME280;54636;51.684;5.142;2023-02-20T13:09:56;102304.28;;;9.75;100.00
67840;BME280;54636;51.684;5.142;2023-02-20T13:12:23;102310.59;;;9.72;100.00
67840;BME280;54636;51.684;5.142;2023-02-20T13:17:37;102313.38;;;9.81;100.00
67840;BME280;54636;51.684;5.142;2023-02-20T13:20:18;102308.59;;;9.85;100.00
67840;BME280;54636;51.684;5.142;2023-02-20T13:25:47;102283.63;;;9.77;100.00
67840;BME280;54636;51.684;5.142;2023-02-20T13:31:52;102329.63;;;9.94;100.00
67840;BME280;54636;51.684;5.142;2023-02-20T13:42:02;102271.22;;;9.67;100.00
67840;BME280;54636;51.684;5.142;2023-02-20T13:49:56;102296.00;;;9.78;100.00
67840;BME280;54636;51.684;5.142;2023-02-20T13:57:51;102270.13;;;9.65;100.00
67840;BME280;54636;51.684;5.142;2023-02-20T14:00:53;102280.91;;;9.77;100.00
67840;BME280;54636;51.684;5.142;2023-02-20T14:03:22;102230.13;;;9.43;100.00
67840;BME280;54636;51.684;5.142;2023-02-20T14:08:37;102247.22;;;9.66;100.00
67840;BME280;54636;51.684;5.142;2023-02-20T14:13:35;102188.25;;;9.44;100.00
67840;BME280;54636;51.684;5.142;2023-02-20T14:16:02;102240.75;;;9.85;100.00
67840;BME280;54636;51.684;5.142;2023-02-20T14:18:30;102243.38;;;9.76;100.00
67840;BME280;54636;51.684;5.142;2023-02-20T14:21:09;102244.44;;;9.78;100.00
67840;BME280;54636;51.684;5.142;2023-02-20T14:23:39;102232.41;;;9.79;100.00
67840;BME280;54636;51.684;5.142;2023-02-20T14:26:20;102215.78;;;9.55;100.00
67840;BME280;54636;51.684;5.142;2023-02-20T14:28:48;102215.88;;;9.65;100.00
67840;BME280;54636;51.684;5.142;2023-02-20T14:31:22;102234.41;;;9.66;100.00
67840;BME280;54636;51.684;5.142;2023-02-20T14:33:49;102238.97;;;9.69;100.00
67840;BME280;54636;51.684;5.142;2023-02-20T14:41:58;102219.28;;;9.78;100.00
67840;BME280;54636;51.684;5.142;2023-02-20T14:44:25;102237.91;;;9.67;100.00
67840;BME280;54636;51.684;5.142;2023-02-20T14:46:54;102225.09;;;9.67;100.00
67840;BME280;54636;51.684;5.142;2023-02-20T14:49:29;102231.06;;;9.62;100.00
67840;BME280;54636;51.684;5.142;2023-02-20T14:52:12;102235.66;;;9.52;100.00
67840;BME280;54636;51.684;5.142;2023-02-20T14:54:40;102201.09;;;9.31;100.00
67840;BME280;54636;51.684;5.142;2023-02-20T14:57:08;102212.72;;;9.66;100.00
67840;BME280;54636;51.684;5.142;2023-02-20T14:59:37;102229.78;;;9.54;100.00
67840;BME280;54636;51.684;5.142;2023-02-20T15:02:23;102233.38;;;9.51;100.00
67840;BME280;54636;51.684;5.142;2023-02-20T15:04:55;102232.28;;;9.48;100.00
67840;BME280;54636;51.684;5.142;2023-02-20T15:07:25;102224.28;;;9.45;100.00
67840;BME280;54636;51.684;5.142;2023-02-20T15:09:54;102218.00;;;9.35;100.00
67840;BME280;54636;51.684;5.142;2023-02-20T15:12:22;102233.72;;;9.40;100.00
67840;BME280;54636;51.684;5.142;2023-02-20T15:17:28;102243.59;;;9.34;100.00
67840;BME280;54636;51.684;5.142;2023-02-20T15:19:55;102227.66;;;9.36;100.00